createdAt,value
2018-12-13T00:00:52.105Z,9.07
2018-12-13T00:03:20.457Z,8.27
2018-12-13T00:05:48.789Z,11.57
2018-12-13T00:08:17.145Z,9.50
2018-12-13T00:10:45.953Z,9.27
2018-12-13T00:13:14.274Z,11.63
2018-12-13T00:15:42.577Z,9.97
2018-12-13T00:18:10.909Z,10.83
2018-12-13T00:20:39.209Z,10.33
2018-12-13T00:23:07.545Z,10.80
2018-12-13T00:25:35.833Z,9.53
2018-12-13T00:28:04.276Z,10.57
2018-12-13T00:30:32.598Z,11.17
2018-12-13T00:33:00.905Z,10.73
2018-12-13T00:35:29.241Z,12.27
2018-12-13T00:37:57.636Z,9.63
2018-12-13T00:40:25.957Z,12.97
2018-12-13T00:42:54.273Z,11.83
2018-12-13T00:45:22.621Z,13.23
2018-12-13T00:47:50.941Z,11.43
2018-12-13T00:50:19.274Z,10.73
2018-12-13T00:52:47.573Z,11.57
2018-12-13T00:55:15.889Z,11.30
2018-12-13T00:57:44.231Z,11.03
2018-12-13T01:00:12.676Z,11.77
2018-12-13T01:02:40.972Z,11.00
2018-12-13T01:05:09.297Z,11.57
2018-12-13T01:07:37.937Z,12.77
2018-12-13T01:10:06.517Z,11.67
2018-12-13T01:12:35.149Z,10.43
2018-12-13T01:15:03.621Z,11.87
2018-12-13T01:17:31.982Z,11.67
2018-12-13T01:20:00.308Z,10.63
2018-12-13T01:22:28.625Z,11.47
2018-12-13T01:24:56.937Z,12.33
2018-12-13T01:27:25.608Z,11.47
2018-12-13T01:29:53.942Z,10.73
2018-12-13T01:32:22.345Z,10.00
2018-12-13T01:34:50.664Z,12.03
2018-12-13T01:37:18.965Z,11.57
2018-12-13T01:39:47.335Z,11.07
2018-12-13T01:42:15.752Z,11.47
2018-12-13T01:44:46.169Z,13.27
2018-12-13T01:47:14.605Z,14.23
2018-12-13T01:49:43.165Z,10.43
2018-12-13T01:52:11.618Z,12.00
2018-12-13T01:54:41.364Z,11.30
2018-12-13T01:57:10.102Z,11.17
2018-12-13T01:59:38.413Z,15.20
2018-12-13T02:02:06.765Z,11.67
2018-12-13T02:04:35.078Z,13.57
2018-12-13T02:07:03.409Z,12.40
2018-12-13T02:09:31.714Z,11.80
2018-12-13T02:12:00.067Z,11.20
2018-12-13T02:14:28.385Z,13.53
2018-12-13T02:16:56.752Z,12.93
2018-12-13T02:19:25.363Z,14.40
2018-12-13T02:21:53.822Z,13.30
2018-12-13T02:24:22.155Z,15.93
2018-12-13T02:26:50.494Z,16.27
2018-12-13T02:29:18.805Z,12.37
2018-12-13T02:31:47.137Z,12.40
2018-12-13T02:34:15.520Z,14.20
2018-12-13T02:36:43.875Z,12.67
2018-12-13T02:39:12.256Z,14.53
2018-12-13T02:41:40.582Z,14.17
2018-12-13T02:44:08.937Z,16.63
2018-12-13T02:46:37.270Z,13.43
2018-12-13T02:49:08.642Z,14.80
2018-12-13T02:51:36.971Z,15.57
2018-12-13T02:54:05.567Z,14.80
2018-12-13T02:56:33.893Z,13.30
2018-12-13T02:59:02.349Z,13.00
2018-12-13T03:01:30.683Z,11.97
2018-12-13T03:03:59.121Z,13.10
2018-12-13T03:06:27.430Z,12.57
2018-12-13T03:08:55.766Z,13.40
2018-12-13T03:11:24.203Z,13.77
2018-12-13T03:13:52.550Z,12.77
2018-12-13T03:16:21.062Z,12.13
2018-12-13T03:18:49.465Z,13.00
2018-12-13T03:21:17.785Z,14.33
2018-12-13T03:23:46.133Z,12.40
2018-12-13T03:26:14.446Z,12.43
2018-12-13T03:28:42.781Z,11.83
2018-12-13T03:31:11.097Z,11.47
2018-12-13T03:33:39.913Z,12.77
2018-12-13T03:36:08.244Z,11.90
2018-12-13T03:38:36.577Z,13.80
2018-12-13T03:41:05.186Z,12.03
2018-12-13T03:43:33.862Z,14.30
2018-12-13T03:46:02.187Z,11.17
2018-12-13T03:48:30.525Z,13.83
2018-12-13T03:50:58.833Z,10.83
2018-12-13T03:53:27.154Z,10.70
2018-12-13T03:55:55.469Z,13.50
2018-12-13T03:58:26.213Z,11.67
2018-12-13T04:00:54.540Z,10.43
2018-12-13T04:03:22.865Z,11.23
2018-12-13T04:05:51.179Z,13.10
2018-12-13T04:08:19.506Z,10.73
2018-12-13T04:10:47.944Z,11.50
2018-12-13T04:13:16.261Z,10.60
2018-12-13T04:15:44.909Z,10.73
2018-12-13T04:18:13.225Z,10.43
2018-12-13T04:20:41.545Z,10.73
2018-12-13T04:23:10.471Z,12.23
2018-12-13T04:25:38.791Z,14.07
2018-12-13T04:28:07.121Z,11.20
2018-12-13T04:30:35.482Z,12.60
2018-12-13T04:33:03.795Z,11.53
2018-12-13T04:35:32.130Z,9.90
2018-12-13T04:38:00.457Z,13.53
2018-12-13T04:40:28.819Z,10.87
2018-12-13T04:42:57.130Z,12.10
2018-12-13T04:45:25.483Z,12.63
2018-12-13T04:47:53.782Z,11.23
2018-12-13T04:50:22.105Z,14.47
2018-12-13T04:52:50.441Z,11.87
2018-12-13T04:55:18.858Z,12.00
2018-12-13T04:57:47.251Z,13.70
2018-12-13T05:00:15.701Z,13.27
2018-12-13T05:02:44.021Z,14.10
2018-12-13T05:05:12.366Z,14.40
2018-12-13T05:07:41.918Z,13.20
2018-12-13T05:10:16.877Z,12.47
2018-12-13T05:12:45.189Z,12.40
2018-12-13T05:15:13.521Z,12.90
2018-12-13T05:17:41.833Z,15.13
2018-12-13T05:20:10.397Z,14.37
2018-12-13T05:22:38.985Z,14.67
2018-12-13T05:25:07.521Z,15.53
2018-12-13T05:27:36.146Z,15.73
2018-12-13T05:30:04.934Z,15.13
2018-12-13T05:32:33.277Z,14.37
2018-12-13T05:35:01.697Z,13.80
2018-12-13T05:37:30.018Z,12.93
2018-12-13T05:39:58.410Z,12.00
2018-12-13T05:42:27.421Z,13.70
2018-12-13T05:44:55.714Z,13.03
2018-12-13T05:47:24.041Z,13.80
2018-12-13T05:49:52.370Z,13.40
2018-12-13T05:52:20.697Z,11.17
2018-12-13T05:54:48.977Z,14.13
2018-12-13T05:57:17.293Z,13.07
2018-12-13T05:59:45.601Z,15.37
2018-12-13T06:02:14.190Z,13.77
2018-12-13T06:04:42.545Z,12.80
2018-12-13T06:07:11.927Z,10.90
2018-12-13T06:09:41.081Z,12.90
2018-12-13T06:12:10.590Z,10.63
2018-12-13T06:14:38.946Z,14.57
2018-12-13T06:17:07.253Z,12.37
2018-12-13T06:19:35.556Z,12.87
2018-12-13T06:22:03.881Z,13.07
2018-12-13T06:24:37.666Z,12.60
2018-12-13T06:27:06.010Z,13.30
2018-12-13T06:29:34.317Z,12.47
2018-12-13T06:32:02.678Z,13.73
2018-12-13T06:34:31.110Z,12.70
2018-12-13T06:36:59.422Z,14.70
2018-12-13T06:39:27.749Z,13.30
2018-12-13T06:41:56.065Z,13.10
2018-12-13T06:44:24.409Z,13.80
2018-12-13T06:46:53.537Z,12.20
2018-12-13T06:49:21.848Z,13.67
2018-12-13T06:51:50.161Z,13.67
2018-12-13T06:54:18.494Z,13.77
2018-12-13T06:56:46.797Z,12.20
2018-12-13T06:59:15.127Z,10.87
2018-12-13T07:01:43.516Z,12.70
2018-12-13T07:04:11.853Z,16.17
2018-12-13T07:06:40.181Z,11.13
2018-12-13T07:09:08.512Z,13.27
2018-12-13T07:11:36.827Z,12.93
2018-12-13T07:14:06.392Z,12.00
2018-12-13T07:16:35.309Z,14.27
2018-12-13T07:19:03.988Z,11.40
2018-12-13T07:21:32.327Z,13.57
2018-12-13T07:24:00.632Z,12.30
2018-12-13T07:26:28.938Z,11.27
2018-12-13T07:28:57.270Z,12.67
2018-12-13T07:31:25.568Z,11.10
2018-12-13T07:33:53.976Z,12.27
2018-12-13T07:36:22.321Z,12.57
2018-12-13T07:38:50.632Z,12.00
2018-12-13T07:41:19.364Z,11.80
2018-12-13T07:43:47.809Z,11.07
2018-12-13T07:46:16.165Z,13.30
2018-12-13T07:48:44.560Z,11.60
2018-12-13T07:51:12.915Z,13.80
2018-12-13T07:53:41.205Z,10.60
2018-12-13T07:56:09.536Z,11.33
2018-12-13T07:58:37.850Z,11.70
2018-12-13T08:01:06.170Z,10.93
2018-12-13T08:03:34.498Z,11.10
2018-12-13T08:06:02.946Z,12.83
2018-12-13T08:08:31.277Z,13.10
2018-12-13T08:10:59.621Z,11.23
2018-12-13T08:13:27.930Z,13.47
2018-12-13T08:15:56.273Z,12.57
2018-12-13T08:18:24.577Z,12.50
2018-12-13T08:20:52.917Z,12.83
2018-12-13T08:23:21.236Z,12.23
2018-12-13T08:25:49.570Z,11.67
2018-12-13T08:28:17.892Z,13.70
2018-12-13T08:30:46.280Z,10.20
2018-12-13T08:33:14.665Z,14.07
2018-12-13T08:35:42.984Z,11.83
2018-12-13T08:38:11.277Z,12.83
2018-12-13T08:40:39.729Z,9.30
2018-12-13T08:43:08.032Z,10.10
2018-12-13T08:45:36.329Z,11.83
2018-12-13T08:48:04.685Z,9.97
2018-12-13T08:50:33.002Z,10.47
2018-12-13T08:53:01.321Z,10.77
2018-12-13T08:55:29.621Z,12.17
2018-12-13T08:57:58.185Z,11.47
2018-12-13T09:00:26.497Z,12.30
2018-12-13T09:02:54.849Z,12.77
2018-12-13T09:05:23.139Z,9.80
2018-12-13T09:07:51.460Z,9.93
2018-12-13T09:10:19.764Z,10.10
2018-12-13T09:12:48.193Z,10.63
2018-12-13T09:15:16.524Z,11.87
2018-12-13T09:17:44.852Z,10.57
2018-12-13T09:20:13.281Z,11.47
2018-12-13T09:22:42.025Z,10.47
2018-12-13T09:25:10.443Z,9.97
2018-12-13T09:27:38.795Z,9.80
2018-12-13T09:30:07.837Z,12.03
2018-12-13T09:32:36.179Z,11.03
2018-12-13T09:35:05.061Z,12.33
2018-12-13T09:37:33.389Z,11.50
2018-12-13T09:40:01.699Z,11.03
2018-12-13T09:42:30.008Z,11.57
2018-12-13T09:44:58.305Z,11.47
2018-12-13T09:47:26.649Z,12.47
2018-12-13T09:49:54.964Z,11.60
2018-12-13T09:52:23.306Z,10.33
2018-12-13T09:54:51.617Z,10.37
2018-12-13T09:57:19.941Z,11.17
2018-12-13T09:59:48.245Z,11.07
2018-12-13T10:02:16.557Z,10.27
2018-12-13T10:04:44.882Z,9.57
2018-12-13T10:07:13.180Z,10.37
2018-12-13T10:09:41.506Z,12.13
2018-12-13T10:12:09.806Z,10.87
2018-12-13T10:14:38.129Z,11.80
2018-12-13T10:17:06.429Z,10.50
2018-12-13T10:19:34.969Z,10.70
2018-12-13T10:22:03.287Z,10.40
2018-12-13T10:24:31.646Z,13.17
2018-12-13T10:26:59.957Z,11.73
2018-12-13T10:29:28.269Z,10.00
2018-12-13T10:31:56.812Z,12.40
2018-12-13T10:34:25.129Z,10.97
2018-12-13T10:36:53.434Z,9.40
2018-12-13T10:39:21.781Z,9.17
2018-12-13T10:41:50.654Z,10.43
2018-12-13T10:44:23.158Z,9.37
2018-12-13T10:46:51.809Z,9.83
2018-12-13T10:49:20.121Z,9.57
2018-12-13T10:51:48.838Z,10.63
2018-12-13T10:54:17.489Z,9.87
2018-12-13T10:56:46.117Z,8.80
2018-12-13T10:59:14.434Z,10.60
2018-12-13T11:01:44.753Z,10.10
2018-12-13T11:04:13.076Z,9.47
2018-12-13T11:06:41.413Z,9.60
2018-12-13T11:09:09.801Z,8.90
2018-12-13T11:11:38.128Z,8.07
2018-12-13T11:14:06.449Z,9.20
2018-12-13T11:16:34.766Z,9.07
2018-12-13T11:19:03.454Z,8.67
2018-12-13T11:21:31.756Z,9.33
2018-12-13T11:24:00.073Z,8.50
2018-12-13T11:26:28.842Z,7.73
2018-12-13T11:29:34.449Z,8.33
2018-12-13T11:32:02.780Z,9.50
2018-12-13T11:34:31.093Z,9.53
2018-12-13T11:36:59.705Z,9.93
2018-12-13T11:39:28.028Z,8.77
2018-12-13T11:41:56.361Z,8.63
2018-12-13T11:44:26.295Z,8.93
2018-12-13T11:46:54.973Z,8.53
2018-12-13T11:49:23.626Z,8.67
2018-12-13T11:51:51.957Z,9.77
2018-12-13T11:54:41.635Z,8.17
2018-12-13T11:57:10.069Z,7.20
2018-12-13T11:59:38.554Z,8.33
2018-12-13T12:02:07.009Z,8.83
2018-12-13T12:04:35.314Z,7.90
2018-12-13T12:07:03.857Z,9.23
2018-12-13T12:09:32.969Z,9.37
2018-12-13T12:12:01.469Z,8.83
2018-12-13T12:14:29.920Z,9.30
2018-12-13T12:16:59.459Z,7.87
2018-12-13T12:19:27.761Z,9.97
2018-12-13T12:21:56.077Z,8.50
2018-12-13T12:24:24.839Z,8.23
2018-12-13T12:26:53.392Z,9.50
2018-12-13T12:29:21.707Z,8.10
2018-12-13T12:31:50.038Z,9.57
2018-12-13T12:34:18.349Z,7.93
2018-12-13T12:36:46.809Z,8.17
2018-12-13T12:39:18.506Z,7.77
2018-12-13T12:41:45.626Z,8.67
2018-12-13T12:44:13.924Z,8.67
2018-12-13T12:46:42.265Z,9.83
2018-12-13T12:49:10.569Z,8.17
2018-12-13T12:51:39.234Z,7.77
2018-12-13T12:54:08.333Z,8.07
2018-12-13T12:56:36.675Z,10.50
2018-12-13T12:59:05.005Z,8.83
2018-12-13T13:01:33.681Z,10.50
2018-12-13T13:04:01.981Z,9.90
2018-12-13T13:06:30.302Z,9.47
2018-12-13T13:08:58.614Z,9.80
2018-12-13T13:11:27.054Z,9.00
2018-12-13T13:13:55.361Z,8.67
2018-12-13T13:16:23.657Z,7.57
2018-12-13T13:18:51.970Z,11.03
2018-12-13T13:21:20.292Z,7.40
2018-12-13T13:23:48.613Z,8.93
2018-12-13T13:26:16.933Z,8.63
2018-12-13T13:28:45.267Z,9.07
2018-12-13T13:31:13.690Z,10.03
2018-12-13T13:33:42.021Z,8.23
2018-12-13T13:36:10.333Z,8.70
2018-12-13T13:38:38.659Z,7.50
2018-12-13T13:41:07.045Z,8.43
2018-12-13T13:43:35.381Z,8.20
2018-12-13T13:46:03.809Z,9.10
2018-12-13T13:48:32.129Z,8.07
2018-12-13T13:51:00.432Z,8.47
2018-12-13T13:53:28.772Z,8.60
2018-12-13T13:55:57.097Z,7.27
2018-12-13T13:58:25.523Z,9.63
2018-12-13T14:00:53.842Z,6.43
2018-12-13T14:03:22.184Z,7.77
2018-12-13T14:05:50.480Z,8.10
2018-12-13T14:08:18.825Z,10.00
2018-12-13T14:10:47.265Z,7.87
2018-12-13T14:13:15.590Z,8.43
2018-12-13T14:15:43.888Z,8.43
2018-12-13T14:18:12.205Z,8.20
2018-12-13T14:20:40.746Z,8.63
2018-12-13T14:23:09.954Z,9.47
2018-12-13T14:25:38.429Z,7.53
2018-12-13T14:28:06.731Z,7.63
2018-12-13T14:30:35.184Z,7.93
2018-12-13T14:33:03.494Z,8.50
2018-12-13T14:35:32.370Z,8.50
2018-12-13T14:38:00.677Z,7.20
2018-12-13T14:40:29.078Z,7.93
2018-12-13T14:42:57.390Z,6.47
2018-12-13T14:45:25.803Z,7.97
2018-12-13T14:47:54.270Z,8.67
2018-12-13T14:50:22.766Z,7.07
2018-12-13T14:52:51.057Z,7.70
2018-12-13T14:55:19.506Z,8.67
2018-12-13T14:57:47.797Z,8.13
2018-12-13T15:00:16.244Z,8.27
2018-12-13T15:02:44.560Z,8.70
2018-12-13T15:05:13.245Z,9.33
2018-12-13T15:07:41.578Z,9.47
2018-12-13T15:10:11.129Z,7.97
2018-12-13T15:12:39.414Z,9.50
2018-12-13T15:15:07.852Z,10.27
2018-12-13T15:17:36.157Z,12.87
2018-12-13T15:20:04.902Z,11.10
2018-12-13T15:22:33.218Z,11.50
2018-12-13T15:25:01.560Z,11.93
2018-12-13T15:27:29.872Z,11.87
2018-12-13T15:29:58.185Z,11.30
2018-12-13T15:32:26.539Z,10.70
2018-12-13T15:34:54.857Z,11.13
2018-12-13T15:37:23.448Z,10.10
2018-12-13T15:39:57.070Z,10.47
2018-12-13T15:42:22.101Z,12.43
2018-12-13T15:44:50.397Z,11.20
2018-12-13T15:47:18.741Z,10.97
2018-12-13T15:49:47.457Z,10.93
2018-12-13T15:52:15.806Z,11.00
2018-12-13T15:54:44.102Z,10.47
2018-12-13T15:57:12.459Z,12.43
2018-12-13T15:59:40.763Z,12.80
2018-12-13T16:02:09.090Z,12.00
2018-12-13T16:04:37.393Z,11.43
2018-12-13T16:07:05.755Z,11.33
2018-12-13T16:09:34.046Z,12.00
2018-12-13T16:12:02.373Z,10.70
2018-12-13T16:14:31.029Z,10.93
2018-12-13T16:16:59.350Z,11.27
2018-12-13T16:19:28.266Z,10.30
2018-12-13T16:21:57.156Z,10.37
2018-12-13T16:24:25.586Z,11.37
2018-12-13T16:26:53.925Z,11.33
2018-12-13T16:29:22.282Z,11.87
2018-12-13T16:31:50.588Z,12.47
2018-12-13T16:34:19.177Z,8.83
2018-12-13T16:36:48.863Z,9.70
2018-12-13T16:39:17.654Z,10.97
2018-12-13T16:41:46.201Z,9.03
2018-12-13T16:44:14.562Z,11.13
2018-12-13T16:46:42.952Z,11.03
2018-12-13T16:49:11.294Z,12.50
2018-12-13T16:51:40.353Z,9.47
2018-12-13T16:54:08.710Z,8.57
2018-12-13T16:56:38.414Z,13.27
2018-12-13T16:59:07.465Z,10.27
2018-12-13T17:01:36.554Z,10.03
2018-12-13T17:04:04.900Z,11.53
2018-12-13T17:06:33.232Z,10.00
2018-12-13T17:09:01.902Z,11.13
2018-12-13T17:11:30.225Z,11.57
2018-12-13T17:13:58.674Z,9.50
2018-12-13T17:16:27.315Z,10.63
2018-12-13T17:18:56.910Z,10.83
2018-12-13T17:21:26.173Z,11.23
2018-12-13T17:23:54.783Z,11.03
2018-12-13T17:26:23.374Z,15.17
2018-12-13T17:28:51.705Z,11.53
2018-12-13T17:31:20.933Z,9.10
2018-12-13T17:33:49.265Z,9.57
2018-12-13T17:36:17.581Z,12.30
2018-12-13T17:38:46.371Z,12.17
2018-12-13T17:41:15.672Z,11.93
2018-12-13T17:43:44.693Z,9.60
2018-12-13T17:46:13.030Z,11.63
2018-12-13T17:48:41.342Z,10.60
2018-12-13T17:51:09.669Z,9.43
2018-12-13T17:53:38.201Z,12.13
2018-12-13T17:56:06.546Z,9.37
2018-12-13T17:58:34.857Z,12.20
2018-12-13T18:01:03.211Z,12.37
2018-12-13T18:03:31.549Z,13.33
2018-12-13T18:06:00.108Z,11.27
2018-12-13T18:08:28.466Z,12.37
2018-12-13T18:10:57.079Z,10.13
2018-12-13T18:13:25.417Z,11.33
2018-12-13T18:15:53.770Z,11.93
2018-12-13T18:18:22.092Z,10.47
2018-12-13T18:20:50.454Z,10.23
2018-12-13T18:23:19.181Z,9.77
2018-12-13T18:25:47.505Z,12.10
2018-12-13T18:28:15.890Z,10.07
2018-12-13T18:30:44.242Z,9.40
2018-12-13T18:36:11.145Z,11.37
2018-12-13T18:38:39.456Z,11.83
2018-12-13T18:41:07.813Z,12.67
2018-12-13T18:43:36.573Z,11.67
2018-12-13T18:46:04.933Z,10.50
2018-12-13T18:48:33.734Z,14.17
2018-12-13T18:51:02.377Z,10.07
2018-12-13T18:53:30.825Z,15.37
2018-12-13T18:55:59.165Z,12.60
2018-12-13T18:58:27.509Z,11.87
2018-12-13T19:00:55.994Z,11.90
2018-12-13T19:03:24.313Z,9.50
2018-12-13T19:05:57.148Z,11.93
2018-12-13T19:08:32.192Z,11.93
2018-12-13T19:11:02.056Z,12.30
2018-12-13T19:13:30.381Z,10.90
2018-12-13T19:16:03.073Z,10.57
2018-12-13T19:18:31.718Z,11.63
2018-12-13T19:21:04.119Z,11.67
2018-12-13T19:23:36.820Z,10.63
2018-12-13T19:26:06.017Z,12.60
2018-12-13T19:28:36.261Z,10.93
2018-12-13T19:31:07.663Z,11.83
2018-12-13T19:33:37.514Z,9.93
2018-12-13T19:36:06.057Z,10.80
2018-12-13T19:38:34.402Z,11.60
2018-12-13T19:41:11.359Z,10.77
2018-12-13T19:43:42.046Z,11.53
2018-12-13T19:46:13.486Z,9.47
2018-12-13T19:48:48.698Z,10.03
2018-12-13T19:51:18.033Z,12.10
2018-12-13T19:53:49.561Z,14.00
2018-12-13T19:56:21.994Z,13.10
2018-12-13T19:58:51.998Z,11.43
2018-12-13T20:01:20.640Z,11.93
2018-12-13T20:03:51.966Z,10.43
2018-12-13T20:06:26.642Z,10.23
2018-12-13T20:09:01.224Z,13.37
2018-12-13T20:11:31.088Z,11.73
2018-12-13T20:13:59.489Z,10.60
2018-12-13T20:16:30.529Z,10.10
2018-12-13T20:19:00.639Z,13.47
2018-12-13T20:21:30.261Z,11.23
2018-12-13T20:23:59.494Z,11.00
2018-12-13T20:26:30.394Z,11.97
2018-12-13T20:29:00.671Z,11.43
2018-12-13T20:31:29.609Z,13.17
2018-12-13T20:33:58.291Z,12.67
2018-12-13T20:36:28.467Z,13.97
2018-12-13T20:38:56.842Z,10.70
2018-12-13T20:41:26.073Z,13.07
2018-12-13T20:43:54.388Z,10.63
2018-12-13T20:46:22.706Z,11.20
2018-12-13T20:48:51.067Z,11.37
2018-12-13T20:51:19.394Z,12.00
2018-12-13T20:53:48.076Z,12.00
2018-12-13T20:56:16.422Z,12.50
2018-12-13T20:58:44.754Z,9.77
2018-12-13T21:01:13.109Z,13.10
2018-12-13T21:03:41.496Z,11.27
2018-12-13T21:06:09.811Z,11.50
2018-12-13T21:08:43.564Z,13.97
2018-12-13T21:11:17.505Z,11.60
2018-12-13T21:13:50.101Z,12.37
2018-12-13T21:16:20.172Z,10.43
2018-12-13T21:18:51.162Z,9.47
2018-12-13T21:21:20.867Z,12.53
2018-12-13T21:23:54.060Z,12.20
2018-12-13T21:26:24.372Z,11.03
2018-12-13T21:28:52.706Z,9.37
2018-12-13T21:31:21.006Z,10.27
2018-12-13T21:33:49.286Z,11.40
2018-12-13T21:36:17.590Z,11.57
2018-12-13T21:38:46.333Z,11.63
2018-12-13T21:41:14.632Z,10.93
2018-12-13T21:43:42.958Z,10.43
2018-12-13T21:46:11.277Z,12.47
2018-12-13T21:48:39.562Z,12.17
2018-12-13T21:51:07.849Z,10.90
2018-12-13T21:53:36.825Z,12.00
2018-12-13T21:56:05.463Z,11.00
2018-12-13T21:58:33.887Z,10.63
2018-12-13T22:01:02.677Z,9.23
2018-12-13T22:03:30.953Z,13.00
2018-12-13T22:05:59.241Z,10.40
2018-12-13T22:08:28.145Z,12.63
2018-12-13T22:10:56.649Z,12.30
2018-12-13T22:13:26.798Z,11.20
2018-12-13T22:15:56.218Z,10.83
2018-12-13T22:18:24.736Z,11.73
2018-12-13T22:20:53.124Z,10.63
2018-12-13T22:23:21.439Z,12.63
2018-12-13T22:25:49.722Z,11.03
2018-12-13T22:28:18.005Z,13.20
2018-12-13T22:30:46.277Z,11.57
2018-12-13T22:33:14.545Z,12.20
2018-12-13T22:35:43.117Z,11.40
2018-12-13T22:38:11.485Z,10.37
2018-12-13T22:40:39.757Z,9.47
2018-12-13T22:43:08.429Z,11.70
2018-12-13T22:45:36.894Z,16.13
2018-12-13T22:48:05.307Z,10.90
2018-12-13T22:50:33.597Z,11.10
2018-12-13T22:53:02.297Z,11.97
2018-12-13T22:55:31.479Z,10.33
2018-12-13T22:57:59.829Z,11.17
2018-12-13T23:00:28.622Z,12.90
2018-12-13T23:02:57.025Z,8.87
2018-12-13T23:05:25.777Z,11.73
2018-12-13T23:07:54.290Z,10.83
2018-12-13T23:10:23.254Z,9.70
2018-12-13T23:12:51.542Z,11.30
2018-12-13T23:15:20.221Z,9.73
2018-12-13T23:17:48.647Z,10.73
2018-12-13T23:20:17.177Z,11.33
2018-12-13T23:22:45.673Z,11.37
2018-12-13T23:25:14.250Z,10.53
2018-12-13T23:27:42.873Z,9.30
2018-12-13T23:30:11.688Z,11.83
2018-12-13T23:32:41.637Z,11.90
2018-12-13T23:35:10.276Z,10.90
2018-12-13T23:37:38.550Z,9.57
2018-12-13T23:40:06.964Z,8.47
2018-12-13T23:42:35.745Z,8.20
2018-12-13T23:45:05.218Z,10.23
2018-12-13T23:47:33.509Z,10.57
2018-12-13T23:50:01.782Z,11.60
2018-12-13T23:52:30.085Z,9.30
2018-12-13T23:54:58.455Z,8.77
2018-12-13T23:57:26.734Z,8.33
2018-12-13T23:59:55.137Z,7.93
